AirNav   Duncan Aviation - Near you to keep you flying
 
 1550 users online  

3WA0 Taylor Airport
Rainier, Washington, USA

GOING TO RAINIER?


FAA INFORMATION EFFECTIVE 04 NOVEMBER 2021

Location

FAA Identifier: 3WA0
Lat/Long: 46-53-51.3570N 122-40-10.4510W
46-53.855950N 122-40.174183W
46.8975992,-122.6695697
(estimated)
Elevation: 470 ft. / 143 m (estimated)
Variation: 21E (1985)
From city: 1 mile NE of RAINIER, WA
Time zone: UTC -8 (UTC -7 during Daylight Saving Time)
Zip code: 98597

Airport Operations

Airport use: Private use. Permission required prior to landing
Activation date: 08/1990
Control tower: no
ARTCC: SEATTLE CENTER
FSS: SEATTLE FLIGHT SERVICE STATION
Attendance: UNATNDD
Wind indicator: yes
Segmented circle: no

Airport Communications

WX ASOS at OLM (10 nm NW): 135.725 (360-754-0781)
WX ASOS at TCM (16 nm NE): PHONE 253-982-3434
WX AWOS-3 at CLS (18 nm SW): 118.025 (360-740-5164)
WX AWOS-3 at PLU (20 nm NE): 128.575 (253-848-2748)

Nearby radio navigation aids

VOR radial/distance  VOR name  Freq  Var
OLMr096/10.5OLYMPIA VORTAC113.4019E
SEAr185/35.5SEATTLE VORTAC116.8019E

Airport Services

Runway Information

Runway 15/33

Dimensions: 1600 x 50 ft. / 488 x 15 m
Surface: turf
RUNWAY 15  RUNWAY 33
Traffic pattern: leftleft
Obstructions: 40 ft. trees, 650 ft. from runwaynone

Airport Ownership and Management from official FAA records

Ownership: Privately-owned
Owner: CAREY A. TAYLOR
12808 133 RD SE - P.O. BOX 32
RAINIER, WA 98576
Phone 206-446-2532
Manager: CAREY A. TAYLOR
108 BINGHAMPTON ST. E, 12808 133 RD SE - P.O. BOX 32
RAINIER, WA 98576
Phone 206-446-2532

Airport Operational Statistics

Aircraft based on the field: 1
Single engine airplanes: 1
    

Additional Remarks

HILL ON S END.
LIVESTOCK & DEER ON & INVOF ARPT.
USE RY 15 LANDING - 10 KNOT WIND OR LESS.
FOR CD CTC SEATTLE APCH AT 206-214-4794.

Instrument Procedures

There are no published instrument procedures at 3WA0.

Some nearby airports with instrument procedures:

KOLM - Olympia Regional Airport (10 nm NW)
KGRF - Gray Army Airfield (Joint Base Lewis-McChord) (11 nm N)
KTCM - McChord Field Airport (Joint Base Lewis-McChord) (16 nm NE)
KCLS - Chehalis-Centralia Airport (18 nm SW)
KPLU - Pierce County Airport - Thun Field (20 nm NE)
 
Loc | Ops | Rwys | IFR | FBO | Links
Com | Nav | Svcs | Stats | Notes
Area around 3WA0 (Taylor Airport)
 
Road maps at: MapQuest Bing Google
 
Aerial photo
WARNING: Photo may not be current or correct
Aerial photo of 3WA0 (Taylor Airport)
Do you have a better or more recent aerial photo of Taylor Airport that you would like to share? If so, please send us your photo.

 
Sectional chart

 
Airport distance calculator
Flying to Taylor Airport? Find the distance to fly.

From to 3WA0

Sunrise and sunset
Times for 29-Nov-2021
 Local
(UTC-8)
 Zulu
(UTC)
Morning civil twilight07:0015:00
Sunrise07:3415:34
Sunset16:2400:24
Evening civil twilight16:5800:58

Current date and time
Zulu (UTC)  30-Nov-2021 01:09:46
Local (UTC-8)  29-Nov-2021 17:09:46
 
METAR
KOLM 
10nm NW 
300054Z 18006KT 10SM BKN036 OVC045 13/11 A3022 RMK AO2 SLP232 T01280111
KGRF 
11nm NE 
300058Z 17003KT 10SM CLR 12/09 A3019 RMK AO2A SLP228 T01240092 $
KTCM 
16nm NE 
300058Z AUTO 17003KT 10SM BKN046 11/10 A3021 RMK AO2 SLP235 T01090100 $
KCLS 
18nm SW 
300055Z AUTO 20004KT 10SM SCT033 BKN041 OVC050 14/12 A3023 RMK AO2
KPLU 
20nm NE 
300055Z AUTO 00000KT 10SM OVC049 13/11 A3021 RMK AO2
TAF
KOLM 
10nm NW 
291720Z 2918/3018 00000KT 6SM BR OVC006 FM292000 21007KT P6SM BKN013 OVC025 FM300000 20005KT P6SM OVC050 FM300600 21004KT 4SM BR SCT005 OVC015
KGRF 
11nm NE 
292105Z 2921/0103 18005KT 9999 SCT015 BKN025 QNH3021INS BECMG 3004/3005 19006KT 9999 BKN025 QNH3017INS BECMG 3008/3009 21005KT 9999 OVC010 620802 QNH3016INS BECMG 3014/3015 18010G18KT 8000 -SHRA BKN010 OVC020 611006 QNH3017INS BECMG 3022/3023 19010G17KT 9000 -SHRA BKN015 611006 QNH3016INS TX15/2921Z TN10/3005Z
KTCM 
16nm NE 
292100Z 2921/0103 22007KT 9999 SCT020 BKN050 620809 QNH3023INS BECMG 3005/3006 VRB06KT 9999 SCT012 BKN020 620809 QNH3018INS BECMG 3013/3014 21009KT 8000 -SHRA BKN012 OVC020 610809 QNH3017INS TX15/2921Z TN10/3007Z
NOTAMs
Click for the latest NOTAMs
NOTAMs are issued by the DoD/FAA and will open in a separate window not controlled by AirNav.

 

 
 

Would you like to see your business listed on this page?

 If your business provides an interesting product or service to pilots, flight crews, aircraft, or users of the Taylor Airport, you should consider listing it here.  To start the listing process, click on the button below
 
Add a business
 

Other Pages about Taylor Airport

Update a link
 
Copyright © AirNav, LLC. All rights reserved. Privacy Policy  Contact